<?xml version="1.0" encoding="UTF-8" standalone="no" ?>
<gpx xmlns="http://www.topografix.com/GPX/1/1" xmlns:xsi="http://www.w3.org/2001/XMLSchema-instance" xsi:schemaLocation="http://www.topografix.com/GPX/1/1 http://www.topografix.com/GPX/1/1/gpx.xsd" version="1.1" creator="VisuGPX - https://www.visugpx.com">
  <metadata>
    <name>Casque du Lhéris 1595m (site web: Les Pyrénées vues par Mariano)</name>
    <desc><![CDATA[Casque du Lhéris 1595m]]></desc>
  </metadata>
  <wpt lat="43.02402" lon="0.2444">
    <ele>923.9</ele>
    <name><![CDATA[Barrière]]></name>
    <desc><![CDATA[Barrière]]></desc>
    <cmt><![CDATA[Barrière]]></cmt>
  </wpt>
  <wpt lat="43.01403" lon="0.23887">
    <ele>1386.3</ele>
    <name><![CDATA[Cabane-Cot-dessus-1395m]]></name>
    <desc><![CDATA[Cabane-Cot-dessus-1395m]]></desc>
    <cmt><![CDATA[Cabane-Cot-dessus-1395m]]></cmt>
  </wpt>
  <wpt lat="43.01371" lon="0.23123">
    <ele>1566</ele>
    <name><![CDATA[Casque Du Lhéris]]></name>
    <desc><![CDATA[Casque Du Lhéris 1595m]]></desc>
    <cmt><![CDATA[Casque Du Lhéris 1595m]]></cmt>
  </wpt>
  <wpt lat="43.02437" lon="0.24503">
    <ele>917.1</ele>
    <name><![CDATA[Parking-935m]]></name>
    <desc><![CDATA[Parking-935m]]></desc>
    <cmt><![CDATA[Parking-935m]]></cmt>
  </wpt>
  <trk>
    <name><![CDATA[Casque-de-Lheris-1595m-Mariano-le-18-04-2010]]></name>
    <trkseg>
      <trkpt lat="43.02431" lon="0.24503">
        <ele>918.677002</ele>
        <time>2010-04-17T05:43:21Z</time>
      </trkpt>
      <trkpt lat="43.02431" lon="0.24503">
        <ele>918.677002</ele>
        <time>2010-04-17T05:43:22Z</time>
      </trkpt>
      <trkpt lat="43.02431" lon="0.24503">
        <ele>917.235107</ele>
        <time>2010-04-17T05:43:23Z</time>
      </trkpt>
      <trkpt lat="43.02431" lon="0.24503">
        <ele>916.754394</ele>
        <time>2010-04-17T05:44:00Z</time>
      </trkpt>
      <trkpt lat="43.02431" lon="0.24503">
        <ele>914.351074</ele>
        <time>2010-04-17T05:45:55Z</time>
      </trkpt>
      <trkpt lat="43.02431" lon="0.24503">
        <ele>917.715576</ele>
        <time>2010-04-17T05:47:25Z</time>
      </trkpt>
      <trkpt lat="43.02431" lon="0.24503">
        <ele>917.715576</ele>
        <time>2010-04-17T05:47:46Z</time>
      </trkpt>
      <trkpt lat="43.02431" lon="0.24503">
        <ele>916.754394</ele>
        <time>2010-04-17T05:48:11Z</time>
      </trkpt>
      <trkpt lat="43.02431" lon="0.24503">
        <ele>917.715576</ele>
        <time>2010-04-17T05:49:16Z</time>
      </trkpt>
      <trkpt lat="43.02431" lon="0.24503">
        <ele>918.196289</ele>
        <time>2010-04-17T05:49:57Z</time>
      </trkpt>
      <trkpt lat="43.02431" lon="0.24503">
        <ele>917.715576</ele>
        <time>2010-04-17T05:50:44Z</time>
      </trkpt>
      <trkpt lat="43.02431" lon="0.24503">
        <ele>917.715576</ele>
        <time>2010-04-17T05:50:45Z</time>
      </trkpt>
      <trkpt lat="43.02431" lon="0.24503">
        <ele>919.157715</ele>
        <time>2010-04-17T05:50:56Z</time>
      </trkpt>
      <trkpt lat="43.02431" lon="0.24503">
        <ele>919.638428</ele>
        <time>2010-04-17T05:51:11Z</time>
      </trkpt>
      <trkpt lat="43.02431" lon="0.24503">
        <ele>920.599609</ele>
        <time>2010-04-17T05:51:15Z</time>
      </trkpt>
      <trkpt lat="43.02431" lon="0.24503">
        <ele>922.522217</ele>
        <time>2010-04-17T05:51:28Z</time>
      </trkpt>
      <trkpt lat="43.02431" lon="0.24503">
        <ele>923.00293</ele>
        <time>2010-04-17T05:51:37Z</time>
      </trkpt>
      <trkpt lat="43.02431" lon="0.24503">
        <ele>925.40625</ele>
        <time>2010-04-17T05:51:50Z</time>
      </trkpt>
      <trkpt lat="43.02393" lon="0.2442">
        <ele>927.329102</ele>
        <time>2010-04-17T05:51:54Z</time>
      </trkpt>
      <trkpt lat="43.02342" lon="0.2436">
        <ele>935.5</ele>
        <time>2010-04-17T05:52:52Z</time>
      </trkpt>
      <trkpt lat="43.02339" lon="0.24357">
        <ele>935.980713</ele>
        <time>2010-04-17T05:52:56Z</time>
      </trkpt>
      <trkpt lat="43.02325" lon="0.24348">
        <ele>939.825928</ele>
        <time>2010-04-17T05:53:12Z</time>
      </trkpt>
      <trkpt lat="43.02325" lon="0.24348">
        <ele>941.268066</ele>
        <time>2010-04-17T05:53:25Z</time>
      </trkpt>
      <trkpt lat="43.02298" lon="0.24351">
        <ele>947.997315</ele>
        <time>2010-04-17T05:54:01Z</time>
      </trkpt>
      <trkpt lat="43.02298" lon="0.24351">
        <ele>950.400635</ele>
        <time>2010-04-17T05:54:15Z</time>
      </trkpt>
      <trkpt lat="43.02313" lon="0.24407">
        <ele>955.207031</ele>
        <time>2010-04-17T05:54:41Z</time>
      </trkpt>
      <trkpt lat="43.02313" lon="0.24407">
        <ele>957.129883</ele>
        <time>2010-04-17T05:54:51Z</time>
      </trkpt>
      <trkpt lat="43.02277" lon="0.24425">
        <ele>958.571777</ele>
        <time>2010-04-17T05:55:01Z</time>
      </trkpt>
      <trkpt lat="43.02248" lon="0.24399">
        <ele>962.72229</ele>
        <time>2010-04-17T06:13:43Z</time>
      </trkpt>
      <trkpt lat="43.02243" lon="0.243">
        <ele>965.552063</ele>
        <time>2010-04-17T06:18:49Z</time>
      </trkpt>
      <trkpt lat="43.02177" lon="0.24177">
        <ele>989.814697</ele>
        <time>2010-04-17T06:20:18Z</time>
      </trkpt>
      <trkpt lat="43.02174" lon="0.24132">
        <ele>996.786316</ele>
        <time>2010-04-17T06:21:48Z</time>
      </trkpt>
      <trkpt lat="43.02204" lon="0.24025">
        <ele>1008.852417</ele>
        <time>2010-04-17T06:22:02Z</time>
      </trkpt>
      <trkpt lat="43.02212" lon="0.24005">
        <ele>1009.953979</ele>
        <time>2010-04-17T06:22:08Z</time>
      </trkpt>
      <trkpt lat="43.02226" lon="0.23967">
        <ele>1012.101135</ele>
        <time>2010-04-17T06:22:11Z</time>
      </trkpt>
      <trkpt lat="43.02262" lon="0.23865">
        <ele>1017.027405</ele>
        <time>2010-04-17T06:23:50Z</time>
      </trkpt>
      <trkpt lat="43.02279" lon="0.23812">
        <ele>1028.267334</ele>
        <time>2010-04-17T06:25:55Z</time>
      </trkpt>
      <trkpt lat="43.02272" lon="0.238">
        <ele>1025.725464</ele>
        <time>2010-04-17T06:26:15Z</time>
      </trkpt>
      <trkpt lat="43.02255" lon="0.23819">
        <ele>1030.098145</ele>
        <time>2010-04-17T06:26:33Z</time>
      </trkpt>
      <trkpt lat="43.02228" lon="0.23848">
        <ele>1035.477051</ele>
        <time>2010-04-17T06:26:46Z</time>
      </trkpt>
      <trkpt lat="43.02104" lon="0.2401">
        <ele>1060.471436</ele>
        <time>2010-04-17T06:29:59Z</time>
      </trkpt>
      <trkpt lat="43.02104" lon="0.2401">
        <ele>1062.874756</ele>
        <time>2010-04-17T06:30:10Z</time>
      </trkpt>
      <trkpt lat="43.02104" lon="0.2401">
        <ele>1063.835938</ele>
        <time>2010-04-17T06:30:14Z</time>
      </trkpt>
      <trkpt lat="43.02104" lon="0.2401">
        <ele>1065.758789</ele>
        <time>2010-04-17T06:30:30Z</time>
      </trkpt>
      <trkpt lat="43.02104" lon="0.2401">
        <ele>1068.162109</ele>
        <time>2010-04-17T06:30:50Z</time>
      </trkpt>
      <trkpt lat="43.02029" lon="0.24077">
        <ele>1071.046143</ele>
        <time>2010-04-17T06:31:06Z</time>
      </trkpt>
      <trkpt lat="43.02029" lon="0.24077">
        <ele>1070.56543</ele>
        <time>2010-04-17T06:31:25Z</time>
      </trkpt>
      <trkpt lat="43.02029" lon="0.24077">
        <ele>1071.526611</ele>
        <time>2010-04-17T06:32:10Z</time>
      </trkpt>
      <trkpt lat="43.02029" lon="0.24077">
        <ele>1071.526611</ele>
        <time>2010-04-17T06:32:14Z</time>
      </trkpt>
      <trkpt lat="43.02029" lon="0.24077">
        <ele>1074.410645</ele>
        <time>2010-04-17T06:32:32Z</time>
      </trkpt>
      <trkpt lat="43.02029" lon="0.24077">
        <ele>1075.371826</ele>
        <time>2010-04-17T06:32:34Z</time>
      </trkpt>
      <trkpt lat="43.02029" lon="0.24077">
        <ele>1076.813965</ele>
        <time>2010-04-17T06:32:41Z</time>
      </trkpt>
      <trkpt lat="43.02029" lon="0.24077">
        <ele>1078.255859</ele>
        <time>2010-04-17T06:32:54Z</time>
      </trkpt>
      <trkpt lat="43.02029" lon="0.24077">
        <ele>1081.139893</ele>
        <time>2010-04-17T06:33:08Z</time>
      </trkpt>
      <trkpt lat="43.02029" lon="0.24077">
        <ele>1082.581787</ele>
        <time>2010-04-17T06:33:25Z</time>
      </trkpt>
      <trkpt lat="43.02018" lon="0.24119">
        <ele>1061.323486</ele>
        <time>2010-04-17T06:33:40Z</time>
      </trkpt>
      <trkpt lat="43.02017" lon="0.2413">
        <ele>1062.126831</ele>
        <time>2010-04-17T06:33:55Z</time>
      </trkpt>
      <trkpt lat="43.02017" lon="0.24142">
        <ele>1062.479736</ele>
        <time>2010-04-17T06:34:27Z</time>
      </trkpt>
      <trkpt lat="43.02018" lon="0.24174">
        <ele>1067.846802</ele>
        <time>2010-04-17T06:36:01Z</time>
      </trkpt>
      <trkpt lat="43.02018" lon="0.24219">
        <ele>1078.445557</ele>
        <time>2010-04-17T06:36:14Z</time>
      </trkpt>
      <trkpt lat="43.02023" lon="0.24279">
        <ele>1086.392578</ele>
        <time>2010-04-17T06:36:29Z</time>
      </trkpt>
      <trkpt lat="43.02023" lon="0.24308">
        <ele>1088.530029</ele>
        <time>2010-04-17T06:36:46Z</time>
      </trkpt>
      <trkpt lat="43.02023" lon="0.24351">
        <ele>1090.90332</ele>
        <time>2010-04-17T06:37:30Z</time>
      </trkpt>
      <trkpt lat="43.02022" lon="0.244">
        <ele>1091.946777</ele>
        <time>2010-04-17T06:37:43Z</time>
      </trkpt>
      <trkpt lat="43.02019" lon="0.24423">
        <ele>1093.089844</ele>
        <time>2010-04-17T06:38:03Z</time>
      </trkpt>
      <trkpt lat="43.02014" lon="0.24446">
        <ele>1112.382568</ele>
        <time>2010-04-17T06:38:30Z</time>
      </trkpt>
      <trkpt lat="43.02012" lon="0.24449">
        <ele>1114.305176</ele>
        <time>2010-04-17T06:38:42Z</time>
      </trkpt>
      <trkpt lat="43.02012" lon="0.24449">
        <ele>1113.824463</ele>
        <time>2010-04-17T06:39:19Z</time>
      </trkpt>
      <trkpt lat="43.02012" lon="0.24449">
        <ele>1110.459961</ele>
        <time>2010-04-17T06:39:49Z</time>
      </trkpt>
      <trkpt lat="43.02012" lon="0.24449">
        <ele>1115.266602</ele>
        <time>2010-04-17T06:39:51Z</time>
      </trkpt>
      <trkpt lat="43.02012" lon="0.24449">
        <ele>1109.979248</ele>
        <time>2010-04-17T06:39:52Z</time>
      </trkpt>
      <trkpt lat="43.02012" lon="0.24449">
        <ele>1118.631348</ele>
        <time>2010-04-17T06:39:53Z</time>
      </trkpt>
      <trkpt lat="43.02012" lon="0.24449">
        <ele>1113.343994</ele>
        <time>2010-04-17T06:39:54Z</time>
      </trkpt>
      <trkpt lat="43.02012" lon="0.24449">
        <ele>1112.382568</ele>
        <time>2010-04-17T06:39:56Z</time>
      </trkpt>
      <trkpt lat="43.02012" lon="0.24449">
        <ele>1112.863281</ele>
        <time>2010-04-17T06:40:25Z</time>
      </trkpt>
      <trkpt lat="43.02012" lon="0.24449">
        <ele>1112.863281</ele>
        <time>2010-04-17T06:40:38Z</time>
      </trkpt>
      <trkpt lat="43.02012" lon="0.24449">
        <ele>1115.747314</ele>
        <time>2010-04-17T06:40:53Z</time>
      </trkpt>
      <trkpt lat="43.02012" lon="0.24449">
        <ele>1117.189453</ele>
        <time>2010-04-17T06:41:00Z</time>
      </trkpt>
      <trkpt lat="43.02012" lon="0.24449">
        <ele>1117.189453</ele>
        <time>2010-04-17T06:41:03Z</time>
      </trkpt>
      <trkpt lat="43.01976" lon="0.24352">
        <ele>1124.39917</ele>
        <time>2010-04-17T06:42:27Z</time>
      </trkpt>
      <trkpt lat="43.01976" lon="0.24352">
        <ele>1125.841064</ele>
        <time>2010-04-17T06:42:44Z</time>
      </trkpt>
      <trkpt lat="43.01976" lon="0.24352">
        <ele>1127.763672</ele>
        <time>2010-04-17T06:42:59Z</time>
      </trkpt>
      <trkpt lat="43.01976" lon="0.24352">
        <ele>1128.725098</ele>
        <time>2010-04-17T06:43:15Z</time>
      </trkpt>
      <trkpt lat="43.01942" lon="0.24252">
        <ele>1130.166992</ele>
        <time>2010-04-17T06:43:26Z</time>
      </trkpt>
      <trkpt lat="43.01942" lon="0.24252">
        <ele>1130.166992</ele>
        <time>2010-04-17T06:43:34Z</time>
      </trkpt>
      <trkpt lat="43.01942" lon="0.24252">
        <ele>1132.089844</ele>
        <time>2010-04-17T06:43:41Z</time>
      </trkpt>
      <trkpt lat="43.01942" lon="0.24252">
        <ele>1134.012451</ele>
        <time>2010-04-17T06:44:01Z</time>
      </trkpt>
      <trkpt lat="43.01942" lon="0.24252">
        <ele>1136.415771</ele>
        <time>2010-04-17T06:44:18Z</time>
      </trkpt>
      <trkpt lat="43.01942" lon="0.24252">
        <ele>1137.857666</ele>
        <time>2010-04-17T06:44:35Z</time>
      </trkpt>
      <trkpt lat="43.01942" lon="0.24252">
        <ele>1139.299561</ele>
        <time>2010-04-17T06:45:00Z</time>
      </trkpt>
      <trkpt lat="43.01942" lon="0.24252">
        <ele>1140.260986</ele>
        <time>2010-04-17T06:45:19Z</time>
      </trkpt>
      <trkpt lat="43.01891" lon="0.2415">
        <ele>1142.664307</ele>
        <time>2010-04-17T06:45:39Z</time>
      </trkpt>
      <trkpt lat="43.01891" lon="0.2415">
        <ele>1144.58667</ele>
        <time>2010-04-17T06:45:58Z</time>
      </trkpt>
      <trkpt lat="43.01891" lon="0.2415">
        <ele>1146.98999</ele>
        <time>2010-04-17T06:46:14Z</time>
      </trkpt>
      <trkpt lat="43.01891" lon="0.2415">
        <ele>1148.912842</ele>
        <time>2010-04-17T06:46:34Z</time>
      </trkpt>
      <trkpt lat="43.01891" lon="0.2415">
        <ele>1149.393555</ele>
        <time>2010-04-17T06:46:46Z</time>
      </trkpt>
      <trkpt lat="43.01891" lon="0.2415">
        <ele>1151.316162</ele>
        <time>2010-04-17T06:46:58Z</time>
      </trkpt>
      <trkpt lat="43.01863" lon="0.24077">
        <ele>1145.652954</ele>
        <time>2010-04-17T06:47:11Z</time>
      </trkpt>
      <trkpt lat="43.01857" lon="0.24054">
        <ele>1150.207397</ele>
        <time>2010-04-17T06:47:25Z</time>
      </trkpt>
      <trkpt lat="43.01864" lon="0.23986">
        <ele>1150.704224</ele>
        <time>2010-04-17T06:49:58Z</time>
      </trkpt>
      <trkpt lat="43.01872" lon="0.23917">
        <ele>1156.802002</ele>
        <time>2010-04-17T06:50:12Z</time>
      </trkpt>
      <trkpt lat="43.01875" lon="0.239">
        <ele>1159.316284</ele>
        <time>2010-04-17T06:50:23Z</time>
      </trkpt>
      <trkpt lat="43.01903" lon="0.2383">
        <ele>1180.636475</ele>
        <time>2010-04-17T06:52:23Z</time>
      </trkpt>
      <trkpt lat="43.01903" lon="0.2383">
        <ele>1181.597656</ele>
        <time>2010-04-17T06:52:44Z</time>
      </trkpt>
      <trkpt lat="43.01934" lon="0.23803">
        <ele>1166.596924</ele>
        <time>2010-04-17T06:53:12Z</time>
      </trkpt>
      <trkpt lat="43.01949" lon="0.23786">
        <ele>1168.23584</ele>
        <time>2010-04-17T06:53:28Z</time>
      </trkpt>
      <trkpt lat="43.01963" lon="0.2377">
        <ele>1169.642944</ele>
        <time>2010-04-17T06:53:46Z</time>
      </trkpt>
      <trkpt lat="43.01952" lon="0.23762">
        <ele>1174.260254</ele>
        <time>2010-04-17T06:53:56Z</time>
      </trkpt>
      <trkpt lat="43.01927" lon="0.23759">
        <ele>1181.046509</ele>
        <time>2010-04-17T06:54:20Z</time>
      </trkpt>
      <trkpt lat="43.01907" lon="0.23766">
        <ele>1184.10437</ele>
        <time>2010-04-17T06:54:22Z</time>
      </trkpt>
      <trkpt lat="43.01883" lon="0.23788">
        <ele>1183.318237</ele>
        <time>2010-04-17T06:54:36Z</time>
      </trkpt>
      <trkpt lat="43.01871" lon="0.23813">
        <ele>1197.940186</ele>
        <time>2010-04-17T06:54:49Z</time>
      </trkpt>
      <trkpt lat="43.01871" lon="0.23813">
        <ele>1199.862793</ele>
        <time>2010-04-17T06:55:11Z</time>
      </trkpt>
      <trkpt lat="43.01871" lon="0.23813">
        <ele>1196.017578</ele>
        <time>2010-04-17T06:55:16Z</time>
      </trkpt>
      <trkpt lat="43.01871" lon="0.23813">
        <ele>1196.97876</ele>
        <time>2010-04-17T06:55:17Z</time>
      </trkpt>
      <trkpt lat="43.01871" lon="0.23813">
        <ele>1200.823975</ele>
        <time>2010-04-17T06:55:18Z</time>
      </trkpt>
      <trkpt lat="43.01871" lon="0.23813">
        <ele>1200.343506</ele>
        <time>2010-04-17T06:55:19Z</time>
      </trkpt>
      <trkpt lat="43.01871" lon="0.23813">
        <ele>1195.536621</ele>
        <time>2010-04-17T06:55:21Z</time>
      </trkpt>
      <trkpt lat="43.01871" lon="0.23813">
        <ele>1199.38208</ele>
        <time>2010-04-17T06:55:22Z</time>
      </trkpt>
      <trkpt lat="43.01871" lon="0.23813">
        <ele>1195.055908</ele>
        <time>2010-04-17T06:55:25Z</time>
      </trkpt>
      <trkpt lat="43.01871" lon="0.23813">
        <ele>1200.343506</ele>
        <time>2010-04-17T06:55:26Z</time>
      </trkpt>
      <trkpt lat="43.01871" lon="0.23813">
        <ele>1197.459473</ele>
        <time>2010-04-17T06:55:43Z</time>
      </trkpt>
      <trkpt lat="43.01871" lon="0.23813">
        <ele>1200.823975</ele>
        <time>2010-04-17T06:55:53Z</time>
      </trkpt>
      <trkpt lat="43.01871" lon="0.23813">
        <ele>1196.498291</ele>
        <time>2010-04-17T06:55:55Z</time>
      </trkpt>
      <trkpt lat="43.01871" lon="0.23813">
        <ele>1200.343506</ele>
        <time>2010-04-17T06:55:56Z</time>
      </trkpt>
      <trkpt lat="43.01871" lon="0.23813">
        <ele>1196.017578</ele>
        <time>2010-04-17T06:55:57Z</time>
      </trkpt>
      <trkpt lat="43.01871" lon="0.23813">
        <ele>1197.459473</ele>
        <time>2010-04-17T06:56:00Z</time>
      </trkpt>
      <trkpt lat="43.01871" lon="0.23813">
        <ele>1196.498291</ele>
        <time>2010-04-17T06:56:07Z</time>
      </trkpt>
      <trkpt lat="43.01871" lon="0.23813">
        <ele>1197.459473</ele>
        <time>2010-04-17T06:56:15Z</time>
      </trkpt>
      <trkpt lat="43.01871" lon="0.23813">
        <ele>1197.459473</ele>
        <time>2010-04-17T06:56:30Z</time>
      </trkpt>
      <trkpt lat="43.01871" lon="0.23813">
        <ele>1202.265869</ele>
        <time>2010-04-17T06:56:33Z</time>
      </trkpt>
      <trkpt lat="43.01871" lon="0.23813">
        <ele>1198.901367</ele>
        <time>2010-04-17T06:56:34Z</time>
      </trkpt>
      <trkpt lat="43.01871" lon="0.23813">
        <ele>1197.940186</ele>
        <time>2010-04-17T06:56:36Z</time>
      </trkpt>
      <trkpt lat="43.01871" lon="0.23813">
        <ele>1198.901367</ele>
        <time>2010-04-17T06:56:48Z</time>
      </trkpt>
      <trkpt lat="43.01871" lon="0.23813">
        <ele>1195.536621</ele>
        <time>2010-04-17T06:56:50Z</time>
      </trkpt>
      <trkpt lat="43.01871" lon="0.23813">
        <ele>1195.536621</ele>
        <time>2010-04-17T06:56:51Z</time>
      </trkpt>
      <trkpt lat="43.01871" lon="0.23813">
        <ele>1201.304688</ele>
        <time>2010-04-17T06:56:53Z</time>
      </trkpt>
      <trkpt lat="43.01871" lon="0.23813">
        <ele>1198.901367</ele>
        <time>2010-04-17T06:56:54Z</time>
      </trkpt>
      <trkpt lat="43.01871" lon="0.23813">
        <ele>1198.420654</ele>
        <time>2010-04-17T06:57:12Z</time>
      </trkpt>
      <trkpt lat="43.01835" lon="0.23821">
        <ele>1199.862793</ele>
        <time>2010-04-17T06:58:28Z</time>
      </trkpt>
      <trkpt lat="43.01825" lon="0.23816">
        <ele>1200.093872</ele>
        <time>2010-04-17T06:58:44Z</time>
      </trkpt>
      <trkpt lat="43.0181" lon="0.23836">
        <ele>1205.630615</ele>
        <time>2010-04-17T06:59:11Z</time>
      </trkpt>
      <trkpt lat="43.01784" lon="0.23867">
        <ele>1213.321289</ele>
        <time>2010-04-17T06:59:49Z</time>
      </trkpt>
      <trkpt lat="43.01736" lon="0.23943">
        <ele>1220.269043</ele>
        <time>2010-04-17T07:01:54Z</time>
      </trkpt>
      <trkpt lat="43.01727" lon="0.23977">
        <ele>1228.22168</ele>
        <time>2010-04-17T07:02:17Z</time>
      </trkpt>
      <trkpt lat="43.0172" lon="0.24066">
        <ele>1241.679932</ele>
        <time>2010-04-17T07:04:15Z</time>
      </trkpt>
      <trkpt lat="43.01721" lon="0.24116">
        <ele>1245.525391</ele>
        <time>2010-04-17T07:05:01Z</time>
      </trkpt>
      <trkpt lat="43.01718" lon="0.2414">
        <ele>1247.447998</ele>
        <time>2010-04-17T07:05:49Z</time>
      </trkpt>
      <trkpt lat="43.01707" lon="0.24178">
        <ele>1251.773926</ele>
        <time>2010-04-17T07:06:21Z</time>
      </trkpt>
      <trkpt lat="43.01715" lon="0.24229">
        <ele>1257.061035</ele>
        <time>2010-04-17T07:07:48Z</time>
      </trkpt>
      <trkpt lat="43.01736" lon="0.24321">
        <ele>1266.674316</ele>
        <time>2010-04-17T07:09:08Z</time>
      </trkpt>
      <trkpt lat="43.01739" lon="0.24331">
        <ele>1267.635498</ele>
        <time>2010-04-17T07:09:21Z</time>
      </trkpt>
      <trkpt lat="43.0174" lon="0.24336">
        <ele>1267.635498</ele>
        <time>2010-04-17T07:09:25Z</time>
      </trkpt>
      <trkpt lat="43.01743" lon="0.24383">
        <ele>1274.364746</ele>
        <time>2010-04-17T07:11:35Z</time>
      </trkpt>
      <trkpt lat="43.01741" lon="0.24474">
        <ele>1285.419922</ele>
        <time>2010-04-17T07:12:57Z</time>
      </trkpt>
      <trkpt lat="43.01685" lon="0.2439">
        <ele>1300.320557</ele>
        <time>2010-04-17T07:18:48Z</time>
      </trkpt>
      <trkpt lat="43.01626" lon="0.24315">
        <ele>1310.414307</ele>
        <time>2010-04-17T07:22:35Z</time>
      </trkpt>
      <trkpt lat="43.01584" lon="0.24273">
        <ele>1319.066162</ele>
        <time>2010-04-17T07:23:53Z</time>
      </trkpt>
      <trkpt lat="43.01579" lon="0.24272">
        <ele>1322.430664</ele>
        <time>2010-04-17T07:24:16Z</time>
      </trkpt>
      <trkpt lat="43.01568" lon="0.24272">
        <ele>1327.718018</ele>
        <time>2010-04-17T07:26:08Z</time>
      </trkpt>
      <trkpt lat="43.01556" lon="0.24263">
        <ele>1333.48584</ele>
        <time>2010-04-17T07:26:42Z</time>
      </trkpt>
      <trkpt lat="43.01544" lon="0.24264">
        <ele>1340.695801</ele>
        <time>2010-04-17T07:27:06Z</time>
      </trkpt>
      <trkpt lat="43.01539" lon="0.24268">
        <ele>1342.137939</ele>
        <time>2010-04-17T07:27:21Z</time>
      </trkpt>
      <trkpt lat="43.01537" lon="0.24265">
        <ele>1344.060547</ele>
        <time>2010-04-17T07:27:34Z</time>
      </trkpt>
      <trkpt lat="43.01522" lon="0.24274">
        <ele>1350.789551</ele>
        <time>2010-04-17T07:27:56Z</time>
      </trkpt>
      <trkpt lat="43.01515" lon="0.24258">
        <ele>1354.634766</ele>
        <time>2010-04-17T07:28:30Z</time>
      </trkpt>
      <trkpt lat="43.01502" lon="0.24251">
        <ele>1359.922119</ele>
        <time>2010-04-17T07:32:02Z</time>
      </trkpt>
      <trkpt lat="43.01491" lon="0.24235">
        <ele>1364.72876</ele>
        <time>2010-04-17T07:32:26Z</time>
      </trkpt>
      <trkpt lat="43.01477" lon="0.2423">
        <ele>1368.573975</ele>
        <time>2010-04-17T07:32:50Z</time>
      </trkpt>
      <trkpt lat="43.0146" lon="0.24192">
        <ele>1369.054688</ele>
        <time>2010-04-17T07:33:53Z</time>
      </trkpt>
      <trkpt lat="43.0143" lon="0.24067">
        <ele>1369.5354</ele>
        <time>2010-04-17T07:40:02Z</time>
      </trkpt>
      <trkpt lat="43.01406" lon="0.23862">
        <ele>1398.374756</ele>
        <time>2010-04-17T07:51:18Z</time>
      </trkpt>
      <trkpt lat="43.01406" lon="0.23793">
        <ele>1402.219971</ele>
        <time>2010-04-17T07:52:58Z</time>
      </trkpt>
      <trkpt lat="43.01401" lon="0.23756">
        <ele>1407.507568</ele>
        <time>2010-04-17T07:55:30Z</time>
      </trkpt>
      <trkpt lat="43.01398" lon="0.23704">
        <ele>1418.081787</ele>
        <time>2010-04-17T07:57:09Z</time>
      </trkpt>
      <trkpt lat="43.01398" lon="0.23615">
        <ele>1442.595703</ele>
        <time>2010-04-17T08:02:22Z</time>
      </trkpt>
      <trkpt lat="43.01407" lon="0.23446">
        <ele>1483.932129</ele>
        <time>2010-04-17T08:19:30Z</time>
      </trkpt>
      <trkpt lat="43.0142" lon="0.23423">
        <ele>1492.584229</ele>
        <time>2010-04-17T08:20:43Z</time>
      </trkpt>
      <trkpt lat="43.01421" lon="0.23423">
        <ele>1492.584229</ele>
        <time>2010-04-17T08:20:59Z</time>
      </trkpt>
      <trkpt lat="43.01449" lon="0.23396">
        <ele>1508.445801</ele>
        <time>2010-04-17T08:22:06Z</time>
      </trkpt>
      <trkpt lat="43.01459" lon="0.23379">
        <ele>1515.175049</ele>
        <time>2010-04-17T08:22:36Z</time>
      </trkpt>
      <trkpt lat="43.01446" lon="0.23302">
        <ele>1546.417969</ele>
        <time>2010-04-17T08:25:37Z</time>
      </trkpt>
      <trkpt lat="43.01396" lon="0.23209">
        <ele>1576.699463</ele>
        <time>2010-04-17T08:28:22Z</time>
      </trkpt>
      <trkpt lat="43.0138" lon="0.23159">
        <ele>1585.832031</ele>
        <time>2010-04-17T08:29:24Z</time>
      </trkpt>
      <trkpt lat="43.01383" lon="0.23147">
        <ele>1589.196533</ele>
        <time>2010-04-17T08:29:35Z</time>
      </trkpt>
      <trkpt lat="43.01376" lon="0.23127">
        <ele>1596.887207</ele>
        <time>2010-04-17T08:30:40Z</time>
      </trkpt>
      <trkpt lat="43.01395" lon="0.23216">
        <ele>1575.257324</ele>
        <time>2010-04-17T13:10:22Z</time>
      </trkpt>
      <trkpt lat="43.01443" lon="0.23286">
        <ele>1549.782715</ele>
        <time>2010-04-17T13:11:45Z</time>
      </trkpt>
      <trkpt lat="43.01455" lon="0.23393">
        <ele>1508.926514</ele>
        <time>2010-04-17T13:14:27Z</time>
      </trkpt>
      <trkpt lat="43.01423" lon="0.23424">
        <ele>1494.026123</ele>
        <time>2010-04-17T13:15:17Z</time>
      </trkpt>
      <trkpt lat="43.01411" lon="0.23437">
        <ele>1488.258301</ele>
        <time>2010-04-17T13:15:33Z</time>
      </trkpt>
      <trkpt lat="43.01402" lon="0.23554">
        <ele>1460.860596</ele>
        <time>2010-04-17T13:16:58Z</time>
      </trkpt>
      <trkpt lat="43.01402" lon="0.23576">
        <ele>1452.689453</ele>
        <time>2010-04-17T13:17:26Z</time>
      </trkpt>
      <trkpt lat="43.01398" lon="0.2369">
        <ele>1420.485352</ele>
        <time>2010-04-17T13:18:49Z</time>
      </trkpt>
      <trkpt lat="43.01403" lon="0.23777">
        <ele>1405.584961</ele>
        <time>2010-04-17T13:19:48Z</time>
      </trkpt>
      <trkpt lat="43.01407" lon="0.23866">
        <ele>1397.413574</ele>
        <time>2010-04-17T13:21:21Z</time>
      </trkpt>
      <trkpt lat="43.01407" lon="0.23871">
        <ele>1396.452393</ele>
        <time>2010-04-17T13:21:24Z</time>
      </trkpt>
      <trkpt lat="43.01422" lon="0.24012">
        <ele>1372.900146</ele>
        <time>2010-04-17T13:28:03Z</time>
      </trkpt>
      <trkpt lat="43.01436" lon="0.24093">
        <ele>1362.806152</ele>
        <time>2010-04-17T13:28:53Z</time>
      </trkpt>
      <trkpt lat="43.01441" lon="0.24118">
        <ele>1360.883545</ele>
        <time>2010-04-17T13:29:07Z</time>
      </trkpt>
      <trkpt lat="43.01449" lon="0.24167">
        <ele>1360.883545</ele>
        <time>2010-04-17T13:29:40Z</time>
      </trkpt>
      <trkpt lat="43.01455" lon="0.24216">
        <ele>1363.767334</ele>
        <time>2010-04-17T13:33:58Z</time>
      </trkpt>
      <trkpt lat="43.01471" lon="0.24257">
        <ele>1362.806152</ele>
        <time>2010-04-17T13:34:51Z</time>
      </trkpt>
      <trkpt lat="43.01511" lon="0.24282">
        <ele>1352.712158</ele>
        <time>2010-04-17T13:36:21Z</time>
      </trkpt>
      <trkpt lat="43.01512" lon="0.24281">
        <ele>1353.192871</ele>
        <time>2010-04-17T13:36:22Z</time>
      </trkpt>
      <trkpt lat="43.01521" lon="0.24273">
        <ele>1347.905762</ele>
        <time>2010-04-17T13:36:35Z</time>
      </trkpt>
      <trkpt lat="43.01553" lon="0.24268">
        <ele>1337.331055</ele>
        <time>2010-04-17T13:37:18Z</time>
      </trkpt>
      <trkpt lat="43.01568" lon="0.24263">
        <ele>1328.679443</ele>
        <time>2010-04-17T13:37:42Z</time>
      </trkpt>
      <trkpt lat="43.01576" lon="0.2427">
        <ele>1322.430664</ele>
        <time>2010-04-17T13:37:58Z</time>
      </trkpt>
      <trkpt lat="43.01632" lon="0.24318">
        <ele>1306.568848</ele>
        <time>2010-04-17T13:39:26Z</time>
      </trkpt>
      <trkpt lat="43.01693" lon="0.24399">
        <ele>1294.072021</ele>
        <time>2010-04-17T13:40:43Z</time>
      </trkpt>
      <trkpt lat="43.01712" lon="0.24433">
        <ele>1293.110596</ele>
        <time>2010-04-17T13:41:16Z</time>
      </trkpt>
      <trkpt lat="43.01713" lon="0.24434">
        <ele>1294.55249</ele>
        <time>2010-04-17T13:41:18Z</time>
      </trkpt>
      <trkpt lat="43.01738" lon="0.24468">
        <ele>1279.6521</ele>
        <time>2010-04-17T13:42:17Z</time>
      </trkpt>
      <trkpt lat="43.01744" lon="0.2444">
        <ele>1275.325928</ele>
        <time>2010-04-17T13:42:42Z</time>
      </trkpt>
      <trkpt lat="43.01743" lon="0.2438">
        <ele>1266.674316</ele>
        <time>2010-04-17T13:43:31Z</time>
      </trkpt>
      <trkpt lat="43.01743" lon="0.24354">
        <ele>1261.86792</ele>
        <time>2010-04-17T13:44:21Z</time>
      </trkpt>
      <trkpt lat="43.0174" lon="0.24329">
        <ele>1260.906494</ele>
        <time>2010-04-17T13:44:37Z</time>
      </trkpt>
      <trkpt lat="43.01733" lon="0.24313">
        <ele>1257.541748</ele>
        <time>2010-04-17T13:44:48Z</time>
      </trkpt>
      <trkpt lat="43.0171" lon="0.24238">
        <ele>1246.967285</ele>
        <time>2010-04-17T13:45:50Z</time>
      </trkpt>
      <trkpt lat="43.01709" lon="0.24192">
        <ele>1243.602539</ele>
        <time>2010-04-17T13:46:12Z</time>
      </trkpt>
      <trkpt lat="43.0171" lon="0.24167">
        <ele>1241.199219</ele>
        <time>2010-04-17T13:46:25Z</time>
      </trkpt>
      <trkpt lat="43.01719" lon="0.24137">
        <ele>1236.873291</ele>
        <time>2010-04-17T13:46:42Z</time>
      </trkpt>
      <trkpt lat="43.01721" lon="0.24127">
        <ele>1235.912109</ele>
        <time>2010-04-17T13:46:50Z</time>
      </trkpt>
      <trkpt lat="43.01721" lon="0.24104">
        <ele>1234.470215</ele>
        <time>2010-04-17T13:47:03Z</time>
      </trkpt>
      <trkpt lat="43.01724" lon="0.23987">
        <ele>1221.011719</ele>
        <time>2010-04-17T13:48:20Z</time>
      </trkpt>
      <trkpt lat="43.01745" lon="0.23934">
        <ele>1216.989502</ele>
        <time>2010-04-17T13:48:47Z</time>
      </trkpt>
      <trkpt lat="43.01785" lon="0.23875">
        <ele>1205.904053</ele>
        <time>2010-04-17T13:49:31Z</time>
      </trkpt>
      <trkpt lat="43.01799" lon="0.23854">
        <ele>1202.454102</ele>
        <time>2010-04-17T13:49:45Z</time>
      </trkpt>
      <trkpt lat="43.01822" lon="0.23832">
        <ele>1197.099854</ele>
        <time>2010-04-17T13:50:23Z</time>
      </trkpt>
      <trkpt lat="43.01834" lon="0.23816">
        <ele>1195.21521</ele>
        <time>2010-04-17T13:50:56Z</time>
      </trkpt>
      <trkpt lat="43.01842" lon="0.23815">
        <ele>1191.31958</ele>
        <time>2010-04-17T13:50:57Z</time>
      </trkpt>
      <trkpt lat="43.01861" lon="0.23816">
        <ele>1195.536621</ele>
        <time>2010-04-17T13:51:18Z</time>
      </trkpt>
      <trkpt lat="43.01863" lon="0.23813">
        <ele>1196.017578</ele>
        <time>2010-04-17T13:51:23Z</time>
      </trkpt>
      <trkpt lat="43.01886" lon="0.23788">
        <ele>1192.652832</ele>
        <time>2010-04-17T13:51:53Z</time>
      </trkpt>
      <trkpt lat="43.01906" lon="0.23768">
        <ele>1187.846191</ele>
        <time>2010-04-17T13:52:14Z</time>
      </trkpt>
      <trkpt lat="43.01927" lon="0.23759">
        <ele>1184.962402</ele>
        <time>2010-04-17T13:52:31Z</time>
      </trkpt>
      <trkpt lat="43.01951" lon="0.23762">
        <ele>1182.078369</ele>
        <time>2010-04-17T13:52:50Z</time>
      </trkpt>
      <trkpt lat="43.01962" lon="0.2377">
        <ele>1170.091675</ele>
        <time>2010-04-17T13:53:05Z</time>
      </trkpt>
      <trkpt lat="43.01959" lon="0.23776">
        <ele>1181.117188</ele>
        <time>2010-04-17T13:53:09Z</time>
      </trkpt>
      <trkpt lat="43.01894" lon="0.23848">
        <ele>1171.503662</ele>
        <time>2010-04-17T13:54:24Z</time>
      </trkpt>
      <trkpt lat="43.01881" lon="0.2387">
        <ele>1168.13916</ele>
        <time>2010-04-17T13:54:43Z</time>
      </trkpt>
      <trkpt lat="43.01873" lon="0.23923">
        <ele>1164.774658</ele>
        <time>2010-04-17T13:55:16Z</time>
      </trkpt>
      <trkpt lat="43.01857" lon="0.24056">
        <ele>1154.200195</ele>
        <time>2010-04-17T13:56:40Z</time>
      </trkpt>
      <trkpt lat="43.01875" lon="0.24109">
        <ele>1150.835449</ele>
        <time>2010-04-17T13:57:19Z</time>
      </trkpt>
      <trkpt lat="43.01946" lon="0.24262">
        <ele>1131.608887</ele>
        <time>2010-04-17T13:59:27Z</time>
      </trkpt>
      <trkpt lat="43.02014" lon="0.24453">
        <ele>1094.97229</ele>
        <time>2010-04-17T14:02:34Z</time>
      </trkpt>
      <trkpt lat="43.02015" lon="0.24261">
        <ele>1097.962891</ele>
        <time>2010-04-17T14:05:42Z</time>
      </trkpt>
      <trkpt lat="43.02012" lon="0.24225">
        <ele>1094.117676</ele>
        <time>2010-04-17T14:06:07Z</time>
      </trkpt>
      <trkpt lat="43.02013" lon="0.24195">
        <ele>1089.311035</ele>
        <time>2010-04-17T14:06:36Z</time>
      </trkpt>
      <trkpt lat="43.02018" lon="0.24151">
        <ele>1083.542969</ele>
        <time>2010-04-17T14:07:10Z</time>
      </trkpt>
      <trkpt lat="43.0202" lon="0.24113">
        <ele>1060.460205</ele>
        <time>2010-04-17T14:07:26Z</time>
      </trkpt>
      <trkpt lat="43.02029" lon="0.24079">
        <ele>1059.779419</ele>
        <time>2010-04-17T14:07:47Z</time>
      </trkpt>
      <trkpt lat="43.02042" lon="0.24069">
        <ele>1058.869751</ele>
        <time>2010-04-17T14:08:11Z</time>
      </trkpt>
      <trkpt lat="43.02063" lon="0.24051">
        <ele>1057.401978</ele>
        <time>2010-04-17T14:08:16Z</time>
      </trkpt>
      <trkpt lat="43.02054" lon="0.24061">
        <ele>1072.007324</ele>
        <time>2010-04-17T14:08:18Z</time>
      </trkpt>
      <trkpt lat="43.02086" lon="0.24024">
        <ele>1067.200684</ele>
        <time>2010-04-17T14:08:55Z</time>
      </trkpt>
      <trkpt lat="43.02102" lon="0.24008">
        <ele>1063.835938</ele>
        <time>2010-04-17T14:09:10Z</time>
      </trkpt>
      <trkpt lat="43.02166" lon="0.23936">
        <ele>1053.742432</ele>
        <time>2010-04-17T14:10:18Z</time>
      </trkpt>
      <trkpt lat="43.0223" lon="0.23844">
        <ele>1037.981445</ele>
        <time>2010-04-17T14:11:28Z</time>
      </trkpt>
      <trkpt lat="43.02271" lon="0.23798">
        <ele>1026.489746</ele>
        <time>2010-04-17T14:14:46Z</time>
      </trkpt>
      <trkpt lat="43.02279" lon="0.23812">
        <ele>1019.594482</ele>
        <time>2010-04-17T14:15:23Z</time>
      </trkpt>
      <trkpt lat="43.02235" lon="0.23945">
        <ele>1022.018799</ele>
        <time>2010-04-17T14:16:23Z</time>
      </trkpt>
      <trkpt lat="43.02181" lon="0.2409">
        <ele>1008.079834</ele>
        <time>2010-04-17T14:17:59Z</time>
      </trkpt>
      <trkpt lat="43.02174" lon="0.24135">
        <ele>996.117004</ele>
        <time>2010-04-17T14:18:20Z</time>
      </trkpt>
      <trkpt lat="43.02173" lon="0.24173">
        <ele>995.916199</ele>
        <time>2010-04-17T14:18:36Z</time>
      </trkpt>
      <trkpt lat="43.02244" lon="0.243">
        <ele>988.372803</ele>
        <time>2010-04-17T14:20:33Z</time>
      </trkpt>
      <trkpt lat="43.02245" lon="0.24354">
        <ele>980.682129</ele>
        <time>2010-04-17T14:21:11Z</time>
      </trkpt>
      <trkpt lat="43.0225" lon="0.24399">
        <ele>977.798096</ele>
        <time>2010-04-17T14:21:40Z</time>
      </trkpt>
      <trkpt lat="43.0228" lon="0.2442">
        <ele>972.510986</ele>
        <time>2010-04-17T14:22:52Z</time>
      </trkpt>
      <trkpt lat="43.02308" lon="0.2441">
        <ele>965.301025</ele>
        <time>2010-04-17T14:23:30Z</time>
      </trkpt>
      <trkpt lat="43.02309" lon="0.2441">
        <ele>965.301025</ele>
        <time>2010-04-17T14:23:31Z</time>
      </trkpt>
      <trkpt lat="43.02299" lon="0.24352">
        <ele>961.936523</ele>
        <time>2010-04-17T14:24:06Z</time>
      </trkpt>
      <trkpt lat="43.02324" lon="0.24349">
        <ele>954.726318</ele>
        <time>2010-04-17T14:24:34Z</time>
      </trkpt>
      <trkpt lat="43.02396" lon="0.24417">
        <ele>923.040466</ele>
        <time>2010-04-17T14:25:44Z</time>
      </trkpt>
      <trkpt lat="43.02434" lon="0.24508">
        <ele>935.5</ele>
        <time>2010-04-17T14:27:01Z</time>
      </trkpt>
      <trkpt lat="43.02434" lon="0.24509">
        <ele>935.5</ele>
        <time>2010-04-17T14:27:02Z</time>
      </trkpt>
    </trkseg>
  </trk>
</gpx>